createdAt,value
2023-05-12T00:02:08.718Z,99650.55
2023-05-12T00:05:11.562Z,99653.30
2023-05-12T00:08:14.454Z,99652.77
2023-05-12T00:11:17.314Z,99654.09
2023-05-12T00:14:20.699Z,99655.38
2023-05-12T00:17:23.560Z,99657.41
2023-05-12T00:20:26.804Z,99659.29
2023-05-12T00:23:29.604Z,99653.92
2023-05-12T00:26:32.369Z,99654.96
2023-05-12T00:29:35.346Z,99656.78
2023-05-12T00:32:38.157Z,99655.09
2023-05-12T00:35:40.999Z,99657.00
2023-05-12T00:38:43.809Z,99657.36
2023-05-12T00:41:47.895Z,99658.52
2023-05-12T00:44:50.613Z,99655.85
2023-05-12T00:47:53.681Z,99653.83
2023-05-12T00:50:57.764Z,99655.58
2023-05-12T00:54:00.664Z,99654.00
2023-05-12T00:57:04.147Z,99657.52
2023-05-12T01:00:09.052Z,99655.92
2023-05-12T01:03:12.666Z,99656.05
2023-05-12T01:06:44.791Z,99662.77
2023-05-12T01:09:47.940Z,99666.44
2023-05-12T01:12:51.178Z,99667.14
2023-05-12T01:15:56.795Z,99665.42
2023-05-12T01:19:03.661Z,99668.59
2023-05-12T01:22:07.830Z,99670.83
2023-05-12T01:25:12.158Z,99673.95
2023-05-12T01:28:17.279Z,99675.14
2023-05-12T01:31:21.333Z,99677.10
2023-05-12T01:34:24.261Z,99676.29
2023-05-12T01:37:27.503Z,99675.52
2023-05-12T01:40:30.891Z,99677.42
2023-05-12T01:43:33.907Z,99680.53
2023-05-12T01:46:37.131Z,99681.63
2023-05-12T01:49:40.657Z,99689.27
2023-05-12T01:52:47.797Z,99686.11
2023-05-12T01:55:52.761Z,99687.40
2023-05-12T01:58:56.769Z,99688.48
2023-05-12T02:01:59.702Z,99689.25
2023-05-12T02:05:06.450Z,99691.48
2023-05-12T02:08:09.307Z,99692.09
2023-05-12T02:11:12.209Z,99689.08
2023-05-12T02:14:14.921Z,99691.33
2023-05-12T02:17:18.032Z,99687.17
2023-05-12T02:20:22.032Z,99689.02
2023-05-12T02:23:25.288Z,99690.00
2023-05-12T02:26:28.114Z,99689.23
2023-05-12T02:29:30.987Z,99694.27
2023-05-12T02:32:34.694Z,99693.63
2023-05-12T02:35:37.475Z,99693.82
2023-05-12T02:38:40.457Z,99698.86
2023-05-12T02:41:44.059Z,99697.23
2023-05-12T02:44:47.164Z,99698.30
2023-05-12T02:47:50.035Z,99698.78
2023-05-12T02:50:52.909Z,99696.15
2023-05-12T02:53:55.762Z,99697.39
2023-05-12T02:56:59.814Z,99700.55
2023-05-12T03:00:06.143Z,99703.71
2023-05-12T03:03:10.696Z,99703.71
2023-05-12T03:06:13.739Z,99703.27
2023-05-12T03:09:16.748Z,99702.09
2023-05-12T03:12:19.657Z,99703.92
2023-05-12T03:15:22.476Z,99704.27
2023-05-12T03:18:25.360Z,99704.07
2023-05-12T03:21:28.698Z,99697.83
2023-05-12T03:24:32.497Z,99698.40
2023-05-12T03:27:36.088Z,99700.83
2023-05-12T03:30:39.305Z,99698.92
2023-05-12T03:33:42.144Z,99700.68
2023-05-12T03:36:45.923Z,99696.58
2023-05-12T03:39:49.215Z,99699.77
2023-05-12T03:42:52.230Z,99701.35
2023-05-12T03:45:54.998Z,99707.01
2023-05-12T03:48:58.777Z,99708.20
2023-05-12T03:52:01.651Z,99708.26
2023-05-12T03:55:06.972Z,99704.70
2023-05-12T03:58:09.877Z,99710.69
2023-05-12T04:01:13.062Z,99713.12
2023-05-12T04:04:16.100Z,99715.66
2023-05-12T04:07:18.831Z,99716.83
2023-05-12T04:10:22.305Z,99712.23
2023-05-12T04:13:26.620Z,99716.17
2023-05-12T04:16:29.450Z,99716.86
2023-05-12T04:19:34.667Z,99717.80
2023-05-12T04:22:37.554Z,99720.50
2023-05-12T04:25:40.518Z,99725.98
2023-05-12T04:28:43.630Z,99726.84
2023-05-12T04:31:46.582Z,99723.46
2023-05-12T04:34:51.692Z,99733.97
2023-05-12T04:37:54.653Z,99733.58
2023-05-12T04:40:59.424Z,99738.31
2023-05-12T04:44:02.608Z,99733.23
2023-05-12T04:47:05.711Z,99734.27
2023-05-12T04:50:10.709Z,99737.77
2023-05-12T04:53:13.678Z,99741.94
2023-05-12T04:56:17.716Z,99741.42
2023-05-12T04:59:21.612Z,99740.58
2023-05-12T05:02:26.461Z,99737.98
2023-05-12T05:05:29.518Z,99742.57
2023-05-12T05:08:32.699Z,99744.13
2023-05-12T05:11:35.465Z,99746.63
2023-05-12T05:14:39.079Z,99749.18
2023-05-12T05:17:43.638Z,99748.63
2023-05-12T05:20:54.503Z,99755.85
2023-05-12T05:24:00.863Z,99754.71
2023-05-12T05:27:04.788Z,99754.77
2023-05-12T05:30:11.958Z,99749.69
2023-05-12T05:33:16.292Z,99753.23
2023-05-12T05:36:19.200Z,99754.16
2023-05-12T05:39:22.617Z,99752.42
2023-05-12T05:42:25.939Z,99754.69
2023-05-12T05:45:31.243Z,99753.77
2023-05-12T05:48:36.491Z,99755.88
2023-05-12T05:51:39.431Z,99756.53
2023-05-12T05:54:42.362Z,99762.05
2023-05-12T05:57:45.403Z,99758.67
2023-05-12T06:00:48.851Z,99765.41
2023-05-12T06:03:52.071Z,99763.80
2023-05-12T06:06:55.100Z,99763.95
2023-05-12T06:09:57.870Z,99767.08
2023-05-12T06:13:00.746Z,99769.27
2023-05-12T06:16:03.570Z,99767.29
2023-05-12T06:19:06.704Z,99771.70
2023-05-12T06:22:09.609Z,99771.11
2023-05-12T06:25:12.534Z,99772.41
2023-05-12T06:28:15.298Z,99768.39
2023-05-12T06:31:18.214Z,99763.63
2023-05-12T06:34:23.287Z,99760.11
2023-05-12T06:37:26.007Z,99763.16
2023-05-12T06:40:28.761Z,99762.20
2023-05-12T06:43:31.713Z,99760.18
2023-05-12T06:46:34.696Z,99762.27
2023-05-12T06:49:38.778Z,99760.27
2023-05-12T06:52:41.682Z,99762.00
2023-05-12T06:55:46.309Z,99765.96
2023-05-12T06:58:50.053Z,99768.05
2023-05-12T07:01:52.818Z,99768.05
2023-05-12T07:04:55.871Z,99760.27
2023-05-12T07:07:59.315Z,99762.77
2023-05-12T07:11:02.445Z,99773.47
2023-05-12T07:14:05.164Z,99763.92
2023-05-12T07:17:07.975Z,99766.91
2023-05-12T07:20:11.147Z,99769.58
2023-05-12T07:23:13.919Z,99768.23
2023-05-12T07:26:17.132Z,99762.20
2023-05-12T07:29:19.969Z,99757.95
2023-05-12T07:32:22.729Z,99764.45
2023-05-12T07:35:25.482Z,99771.80
2023-05-12T07:38:28.967Z,99773.44
2023-05-12T07:41:33.817Z,99755.48
2023-05-12T07:44:37.286Z,99759.20
2023-05-12T07:47:40.102Z,99764.45
2023-05-12T07:50:42.953Z,99757.42
2023-05-12T07:53:45.657Z,99761.56
2023-05-12T07:56:48.430Z,99760.86
2023-05-12T07:59:51.371Z,99765.73
2023-05-12T08:02:54.429Z,99758.77
2023-05-12T08:05:57.450Z,99764.39
2023-05-12T08:09:00.672Z,99766.85
2023-05-12T08:12:03.604Z,99758.13
2023-05-12T08:15:07.900Z,99767.84
2023-05-12T08:18:10.840Z,99761.02
2023-05-12T08:21:13.842Z,99765.35
2023-05-12T08:24:16.667Z,99762.61
2023-05-12T08:27:19.912Z,99771.98
2023-05-12T08:30:22.785Z,99776.11
2023-05-12T08:33:25.889Z,99761.09
2023-05-12T08:36:28.731Z,99755.31
2023-05-12T08:39:32.114Z,99773.99
2023-05-12T08:42:44.122Z,99761.51
2023-05-12T08:45:47.652Z,99770.23
2023-05-12T08:48:53.989Z,99760.30
2023-05-12T08:51:59.471Z,99757.27
2023-05-12T08:55:04.003Z,99760.58
2023-05-12T08:58:09.670Z,99764.64
2023-05-12T09:01:14.798Z,99767.13
2023-05-12T09:04:18.405Z,99769.20
2023-05-12T09:07:24.478Z,99778.68
2023-05-12T09:14:03.409Z,99769.21
2023-05-12T09:17:06.831Z,99763.30
2023-05-12T09:20:20.526Z,99761.80
2023-05-12T09:23:32.982Z,99761.42
2023-05-12T09:26:47.546Z,99772.05
2023-05-12T09:29:59.252Z,99768.63
2023-05-12T09:33:10.341Z,99768.42
2023-05-12T09:36:23.989Z,99767.52
2023-05-12T09:39:27.208Z,99774.16
2023-05-12T09:42:31.256Z,99779.15
2023-05-12T09:45:39.127Z,99769.95
2023-05-12T09:48:42.461Z,99765.98
2023-05-12T09:51:45.161Z,99764.80
2023-05-12T09:54:48.454Z,99763.34
2023-05-12T09:57:52.641Z,99768.26
2023-05-12T10:04:10.022Z,99758.60
2023-05-12T10:07:14.467Z,99762.65
2023-05-12T10:10:25.805Z,99762.45
2023-05-12T10:13:28.897Z,99759.79
2023-05-12T10:16:33.519Z,99758.84
2023-05-12T10:19:36.989Z,99762.76
2023-05-12T10:22:41.076Z,99760.83
2023-05-12T10:25:44.769Z,99767.48
2023-05-12T10:28:48.832Z,99754.14
2023-05-12T10:31:51.623Z,99759.32
2023-05-12T10:34:55.158Z,99753.04
2023-05-12T10:38:02.798Z,99749.99
2023-05-12T10:41:06.613Z,99751.48
2023-05-12T10:44:12.271Z,99750.58
2023-05-12T10:47:15.148Z,99764.58
2023-05-12T10:50:28.648Z,99760.09
2023-05-12T10:53:48.674Z,99748.95
2023-05-12T10:56:59.926Z,99747.20
2023-05-12T11:00:04.958Z,99748.40
2023-05-12T11:06:19.768Z,99756.40
2023-05-12T11:09:22.991Z,99747.27
2023-05-12T11:12:31.979Z,99751.27
2023-05-12T11:15:34.737Z,99752.91
2023-05-12T11:18:37.542Z,99744.55
2023-05-12T11:21:40.799Z,99735.56
2023-05-12T11:24:43.758Z,99744.77
2023-05-12T11:27:51.358Z,99756.86
2023-05-12T11:30:55.523Z,99755.36
2023-05-12T11:34:13.107Z,99752.54
2023-05-12T11:37:17.708Z,99740.99
2023-05-12T11:40:22.340Z,99753.38
2023-05-12T11:43:25.331Z,99755.59
2023-05-12T11:46:29.376Z,99756.75
2023-05-12T11:49:32.636Z,99763.39
2023-05-12T11:52:35.909Z,99760.40
2023-05-12T11:55:56.871Z,99764.24
2023-05-12T11:58:59.632Z,99770.62
2023-05-12T12:02:03.896Z,99761.21
2023-05-12T12:05:18.139Z,99758.89
2023-05-12T12:08:21.215Z,99753.54
2023-05-12T12:11:27.028Z,99749.95
2023-05-12T12:14:31.770Z,99751.90
2023-05-12T12:17:34.685Z,99747.19
2023-05-12T12:20:37.625Z,99764.48
2023-05-12T12:23:50.518Z,99751.61
2023-05-12T12:26:54.520Z,99763.02
2023-05-12T12:29:57.316Z,99762.69
2023-05-12T12:33:00.347Z,99753.70
2023-05-12T12:36:03.592Z,99760.13
2023-05-12T12:39:06.411Z,99761.11
2023-05-12T12:42:09.568Z,99759.88
2023-05-12T12:45:13.682Z,99762.09
2023-05-12T12:48:16.547Z,99757.52
2023-05-12T12:51:19.418Z,99756.98
2023-05-12T12:54:22.188Z,99752.94
2023-05-12T12:57:26.121Z,99761.38
2023-05-12T13:00:29.605Z,99746.15
2023-05-12T13:03:32.424Z,99747.88
2023-05-12T13:06:36.177Z,99750.89
2023-05-12T13:09:39.029Z,99749.89
2023-05-12T13:12:42.060Z,99739.98
2023-05-12T13:15:44.808Z,99738.93
2023-05-12T13:18:47.718Z,99726.20
2023-05-12T13:21:50.665Z,99731.05
2023-05-12T13:24:53.842Z,99732.65
2023-05-12T13:27:56.596Z,99736.48
2023-05-12T13:30:59.359Z,99734.27
2023-05-12T13:34:02.446Z,99729.27
2023-05-12T13:37:05.416Z,99738.03
2023-05-12T13:40:09.615Z,99730.56
2023-05-12T13:43:13.045Z,99733.98
2023-05-12T13:46:15.976Z,99737.29
2023-05-12T13:49:19.966Z,99733.08
2023-05-12T13:52:22.950Z,99735.16
2023-05-12T13:55:26.189Z,99734.84
2023-05-12T13:58:29.245Z,99730.83
2023-05-12T14:01:32.447Z,99736.59
2023-05-12T14:04:35.950Z,99728.54
2023-05-12T14:07:38.828Z,99735.39
2023-05-12T14:10:41.687Z,99729.34
2023-05-12T14:13:44.438Z,99730.01
2023-05-12T14:16:47.282Z,99733.05
2023-05-12T14:19:50.149Z,99724.45
2023-05-12T14:22:52.890Z,99727.23
2023-05-12T14:25:55.880Z,99735.08
2023-05-12T14:28:58.685Z,99734.86
2023-05-12T14:32:03.005Z,99727.58
2023-05-12T14:35:08.251Z,99728.39
2023-05-12T14:38:11.336Z,99719.67
2023-05-12T14:41:14.166Z,99723.75
2023-05-12T14:44:16.882Z,99724.70
2023-05-12T14:47:19.741Z,99719.38
2023-05-12T14:50:23.105Z,99722.91
2023-05-12T14:53:26.198Z,99729.04
2023-05-12T14:56:29.280Z,99731.12
2023-05-12T14:59:32.045Z,99722.04
2023-05-12T15:02:34.995Z,99719.02
2023-05-12T15:05:53.257Z,99720.85
2023-05-12T15:09:00.070Z,99730.04
2023-05-12T15:12:04.023Z,99730.38
2023-05-12T15:15:08.938Z,99728.06
2023-05-12T15:18:11.828Z,99725.19
2023-05-12T15:21:15.148Z,99728.40
2023-05-12T15:24:17.946Z,99723.72
2023-05-12T15:27:20.828Z,99718.05
2023-05-12T15:30:23.551Z,99722.61
2023-05-12T15:33:26.834Z,99725.70
2023-05-12T15:36:29.716Z,99720.71
2023-05-12T15:39:32.565Z,99723.91
2023-05-12T15:42:35.314Z,99723.10
2023-05-12T15:45:38.315Z,99724.82
2023-05-12T15:48:41.040Z,99719.83
2023-05-12T15:51:43.868Z,99721.34
2023-05-12T15:54:46.967Z,99716.81
2023-05-12T15:57:50.241Z,99716.59
2023-05-12T16:00:56.383Z,99721.37
2023-05-12T16:04:00.046Z,99716.44
2023-05-12T16:07:03.157Z,99717.48
2023-05-12T16:10:06.578Z,99714.16
2023-05-12T16:13:09.718Z,99718.70
2023-05-12T16:16:12.510Z,99719.02
2023-05-12T16:19:16.277Z,99721.61
2023-05-12T16:22:19.055Z,99717.45
2023-05-12T16:25:21.989Z,99719.02
2023-05-12T16:28:25.287Z,99719.48
2023-05-12T16:31:28.346Z,99723.34
2023-05-12T16:34:31.414Z,99719.22
2023-05-12T16:37:34.421Z,99727.59
2023-05-12T16:40:37.201Z,99720.62
2023-05-12T16:43:39.927Z,99722.17
2023-05-12T16:46:43.269Z,99724.11
2023-05-12T16:49:46.534Z,99730.02
2023-05-12T16:52:49.330Z,99729.84
2023-05-12T17:09:28.845Z,99736.54
2023-05-12T17:12:32.207Z,99742.46
2023-05-12T17:15:37.489Z,99745.40
2023-05-12T17:21:46.252Z,99749.92
2023-05-12T17:24:49.614Z,99754.50
2023-05-12T17:28:27.816Z,99750.77
2023-05-12T17:32:50.295Z,99756.05
2023-05-12T17:36:56.082Z,99758.41
2023-05-12T17:39:59.397Z,99756.48
2023-05-12T17:43:02.395Z,99758.52
2023-05-12T17:46:05.507Z,99758.61
2023-05-12T17:49:08.392Z,99758.35
2023-05-12T17:52:11.260Z,99768.63
2023-05-12T17:55:14.020Z,99770.31
2023-05-12T17:58:16.760Z,99769.35
2023-05-12T18:01:19.501Z,99770.74
2023-05-12T18:04:23.261Z,99774.85
2023-05-12T18:07:26.567Z,99772.71
2023-05-12T18:10:29.615Z,99773.77
2023-05-12T18:13:32.471Z,99775.14
2023-05-12T18:16:35.269Z,99776.88
2023-05-12T18:19:38.061Z,99782.60
2023-05-12T18:22:41.122Z,99782.21
2023-05-12T18:25:43.950Z,99786.43
2023-05-12T18:28:46.909Z,99788.34
2023-05-12T18:31:49.758Z,99790.54
2023-05-12T18:34:52.567Z,99795.09
2023-05-12T18:37:55.528Z,99793.56
2023-05-12T18:40:58.298Z,99796.77
2023-05-12T18:44:01.110Z,99800.17
2023-05-12T18:47:04.106Z,99807.60
2023-05-12T18:50:07.974Z,99808.48
2023-05-12T18:53:11.036Z,99809.34
2023-05-12T18:56:14.345Z,99810.61
2023-05-12T18:59:17.613Z,99809.16
2023-05-12T19:02:20.832Z,99810.46
2023-05-12T19:05:24.064Z,99808.26
2023-05-12T19:08:27.036Z,99809.25
2023-05-12T19:11:29.775Z,99810.15
2023-05-12T19:14:32.647Z,99819.38
2023-05-12T19:17:37.546Z,99820.48
2023-05-12T19:20:41.161Z,99821.98
2023-05-12T19:23:43.967Z,99815.93
2023-05-12T19:26:46.712Z,99818.79
2023-05-12T19:29:49.529Z,99824.07
2023-05-12T19:32:52.434Z,99821.16
2023-05-12T19:35:56.343Z,99824.50
2023-05-12T19:39:00.416Z,99823.43
2023-05-12T19:42:03.347Z,99828.92
2023-05-12T19:45:06.991Z,99829.01
2023-05-12T19:48:10.300Z,99833.59
2023-05-12T19:51:13.404Z,99826.46
2023-05-12T19:54:16.431Z,99828.91
2023-05-12T19:57:19.934Z,99833.16
2023-05-12T20:00:29.918Z,99829.77
2023-05-12T20:03:32.835Z,99827.79
2023-05-12T20:06:35.772Z,99828.92
2023-05-12T20:09:38.523Z,99829.77
2023-05-12T20:12:41.377Z,99832.18
2023-05-12T20:15:44.478Z,99832.81
2023-05-12T20:18:47.324Z,99836.63
2023-05-12T20:21:50.166Z,99834.49
2023-05-12T20:24:52.939Z,99836.27
2023-05-12T20:27:55.732Z,99830.42
2023-05-12T20:30:58.461Z,99833.88
2023-05-12T20:34:01.426Z,99833.21
2023-05-12T20:37:04.278Z,99829.27
2023-05-12T20:40:08.095Z,99834.80
2023-05-12T20:43:12.968Z,99830.44
2023-05-12T20:46:15.870Z,99834.27
2023-05-12T20:49:18.795Z,99829.36
2023-05-12T20:52:23.410Z,99833.38
2023-05-12T20:55:26.655Z,99832.23
2023-05-12T20:58:29.388Z,99834.45
2023-05-12T21:01:32.118Z,99836.39
2023-05-12T21:04:34.921Z,99839.20
2023-05-12T21:07:37.859Z,99839.25
2023-05-12T21:10:41.133Z,99834.52
2023-05-12T21:13:45.450Z,99844.55
2023-05-12T21:16:48.248Z,99845.08
2023-05-12T21:19:50.998Z,99843.73
2023-05-12T21:22:55.103Z,99845.78
2023-05-12T21:25:58.073Z,99846.61
2023-05-12T21:29:03.365Z,99854.30
2023-05-12T21:32:06.815Z,99855.71
2023-05-12T21:35:09.887Z,99856.63
2023-05-12T21:38:13.098Z,99859.60
2023-05-12T21:41:15.885Z,99858.83
2023-05-12T21:44:18.624Z,99862.45
2023-05-12T21:47:21.643Z,99870.23
2023-05-12T21:50:24.469Z,99871.28
2023-05-12T21:53:28.317Z,99869.41
2023-05-12T21:56:31.184Z,99870.23
2023-05-12T21:59:33.954Z,99868.64
2023-05-12T22:02:36.734Z,99869.98
2023-05-12T22:05:40.306Z,99873.00
2023-05-12T22:08:43.453Z,99871.31
2023-05-12T22:11:54.727Z,99875.92
2023-05-12T22:14:57.489Z,99878.38
2023-05-12T22:18:00.817Z,99875.88
2023-05-12T22:21:03.799Z,99877.25
2023-05-12T22:24:07.115Z,99879.38
2023-05-12T22:27:09.850Z,99881.27
2023-05-12T22:30:13.205Z,99881.45
2023-05-12T22:33:15.974Z,99881.52
2023-05-12T22:36:18.784Z,99877.85
2023-05-12T22:39:21.497Z,99880.77
2023-05-12T22:42:24.355Z,99880.34
2023-05-12T22:45:27.253Z,99877.35
2023-05-12T22:48:33.826Z,99876.48
2023-05-12T22:51:38.790Z,99876.00
2023-05-12T22:54:41.536Z,99881.70
2023-05-12T22:57:46.115Z,99877.43
2023-05-12T23:00:49.078Z,99877.16
2023-05-12T23:03:51.859Z,99877.16
2023-05-12T23:06:54.868Z,99879.48
2023-05-12T23:09:57.713Z,99878.88
2023-05-12T23:13:01.039Z,99878.50
2023-05-12T23:16:04.251Z,99873.95
2023-05-12T23:19:07.064Z,99877.48
2023-05-12T23:22:10.048Z,99880.16
2023-05-12T23:25:13.045Z,99875.88
2023-05-12T23:28:15.992Z,99877.70
2023-05-12T23:31:18.745Z,99880.92
2023-05-12T23:34:21.555Z,99874.64
2023-05-12T23:37:27.474Z,99873.42
2023-05-12T23:40:30.929Z,99875.46
2023-05-12T23:43:33.763Z,99872.89
2023-05-12T23:46:36.793Z,99875.75
2023-05-12T23:49:39.761Z,99877.88
2023-05-12T23:52:42.524Z,99872.73
2023-05-12T23:55:45.311Z,99868.35
2023-05-12T23:58:49.078Z,99864.85
